createdAt,value
2018-07-22T00:01:24.363Z,92.87
2018-07-22T00:04:26.626Z,92.65
2018-07-22T00:07:28.891Z,93.40
2018-07-22T00:10:31.133Z,93.34
2018-07-22T00:13:34.534Z,93.28
2018-07-22T00:16:37.082Z,93.10
2018-07-22T00:19:39.410Z,92.56
2018-07-22T00:22:41.656Z,92.77
2018-07-22T00:25:43.909Z,92.37
2018-07-22T00:28:46.221Z,92.27
2018-07-22T00:31:48.493Z,92.55
2018-07-22T00:34:50.718Z,92.62
2018-07-22T00:37:53.014Z,92.29
2018-07-22T00:40:55.278Z,92.61
2018-07-22T00:43:57.548Z,92.41
2018-07-22T00:46:59.838Z,92.23
2018-07-22T00:50:02.205Z,92.64
2018-07-22T00:53:06.438Z,93.73
2018-07-22T00:56:08.676Z,93.50
2018-07-22T00:59:10.979Z,94.19
2018-07-22T01:02:13.274Z,94.46
2018-07-22T01:05:15.493Z,94.48
2018-07-22T01:08:17.771Z,95.10
2018-07-22T01:11:20.079Z,95.27
2018-07-22T01:14:23.328Z,94.90
2018-07-22T01:17:26.546Z,94.95
2018-07-22T01:20:29.845Z,94.96
2018-07-22T01:23:32.120Z,95.09
2018-07-22T01:26:34.355Z,94.67
2018-07-22T01:29:37.589Z,94.90
2018-07-22T01:32:39.990Z,94.90
2018-07-22T01:35:42.208Z,94.63
2018-07-22T01:38:45.453Z,94.40
2018-07-22T01:41:47.743Z,94.96
2018-07-22T01:44:49.992Z,95.29
2018-07-22T01:47:52.242Z,95.95
2018-07-22T01:50:54.470Z,96.05
2018-07-22T01:53:56.706Z,95.85
2018-07-22T01:56:58.967Z,95.44
2018-07-22T02:00:01.258Z,95.50
2018-07-22T02:03:03.647Z,94.89
2018-07-22T02:06:05.979Z,94.42
2018-07-22T02:09:09.501Z,94.38
2018-07-22T02:12:12.789Z,94.23
2018-07-22T02:15:15.003Z,93.99
2018-07-22T02:18:17.354Z,94.23
2018-07-22T02:21:19.675Z,94.59
2018-07-22T02:24:21.993Z,93.80
2018-07-22T02:27:24.269Z,93.31
2018-07-22T02:30:26.485Z,93.16
2018-07-22T02:33:29.744Z,93.37
2018-07-22T02:36:32.011Z,93.16
2018-07-22T02:39:34.294Z,93.25
2018-07-22T02:42:36.580Z,92.99
2018-07-22T02:45:38.932Z,92.42
2018-07-22T02:48:41.183Z,92.82
2018-07-22T02:51:43.453Z,92.18
2018-07-22T02:54:45.714Z,91.71
2018-07-22T02:57:47.968Z,91.75
2018-07-22T03:00:50.237Z,91.22
2018-07-22T03:03:52.500Z,91.05
2018-07-22T03:06:55.745Z,91.19
2018-07-22T03:09:58.038Z,90.85
2018-07-22T03:13:00.261Z,90.80
2018-07-22T03:16:02.552Z,91.50
2018-07-22T03:19:04.818Z,91.69
2018-07-22T03:22:07.246Z,91.38
2018-07-22T03:25:09.598Z,93.42
2018-07-22T03:28:12.165Z,93.28
2018-07-22T03:31:14.642Z,93.76
2018-07-22T03:34:16.860Z,93.74
2018-07-22T03:37:19.293Z,93.77
2018-07-22T03:40:21.546Z,94.06
2018-07-22T03:43:23.784Z,93.90
2018-07-22T03:46:26.100Z,93.59
2018-07-22T03:49:28.377Z,93.79
2018-07-22T03:52:30.649Z,93.81
2018-07-22T03:55:32.894Z,93.68
2018-07-22T03:58:35.164Z,93.37
2018-07-22T04:01:37.585Z,93.06
2018-07-22T04:04:39.831Z,93.23
2018-07-22T04:07:42.062Z,92.69
2018-07-22T04:10:44.329Z,93.18
2018-07-22T04:13:46.653Z,92.77
2018-07-22T04:16:48.881Z,91.56
2018-07-22T04:19:51.146Z,91.60
2018-07-22T04:22:53.429Z,91.41
2018-07-22T04:25:55.755Z,90.97
2018-07-22T04:28:57.995Z,89.78
2018-07-22T04:32:00.305Z,88.83
2018-07-22T04:35:02.678Z,88.55
2018-07-22T04:38:05.295Z,87.57
2018-07-22T04:41:07.509Z,87.72
2018-07-22T04:44:09.767Z,87.16
2018-07-22T04:47:11.984Z,86.07
2018-07-22T04:50:14.249Z,85.74
2018-07-22T04:53:16.502Z,85.03
2018-07-22T04:56:18.802Z,84.03
2018-07-22T04:59:21.210Z,81.48
2018-07-22T05:02:23.687Z,78.89
2018-07-22T05:05:25.998Z,77.63
2018-07-22T05:08:28.344Z,75.51
2018-07-22T05:11:30.558Z,75.03
2018-07-22T05:14:32.801Z,75.28
2018-07-22T05:17:35.014Z,74.63
2018-07-22T05:20:37.247Z,74.34
2018-07-22T05:23:39.498Z,74.26
2018-07-22T05:26:41.733Z,70.30
2018-07-22T05:29:44.029Z,71.62
2018-07-22T05:32:46.312Z,71.87
2018-07-22T05:35:48.618Z,70.79
2018-07-22T05:38:50.853Z,69.93
2018-07-22T05:41:53.121Z,69.75
2018-07-22T05:44:55.326Z,69.62
2018-07-22T05:47:57.501Z,71.66
2018-07-22T05:50:59.821Z,72.25
2018-07-22T05:54:02.106Z,69.96
2018-07-22T05:57:05.181Z,72.40
2018-07-22T06:00:07.921Z,73.02
2018-07-22T06:03:10.137Z,71.24
2018-07-22T06:06:13.368Z,67.80
2018-07-22T06:09:15.609Z,65.80
2018-07-22T06:12:17.874Z,65.98
2018-07-22T06:15:20.426Z,64.85
2018-07-22T06:18:22.663Z,64.43
2018-07-22T06:21:25.026Z,64.28
2018-07-22T06:24:27.241Z,59.29
2018-07-22T06:27:29.500Z,61.76
2018-07-22T06:30:31.808Z,58.65
2018-07-22T06:33:34.158Z,58.88
2018-07-22T06:36:36.403Z,54.47
2018-07-22T06:39:38.701Z,55.41
2018-07-22T06:42:40.990Z,56.75
2018-07-22T06:45:43.362Z,57.40
2018-07-22T06:48:45.665Z,53.38
2018-07-22T06:51:48.090Z,54.85
2018-07-22T06:54:50.325Z,54.48
2018-07-22T06:57:52.678Z,57.94
2018-07-22T07:00:55.162Z,55.45
2018-07-22T07:03:57.518Z,53.32
2018-07-22T07:06:59.842Z,57.28
2018-07-22T07:10:02.224Z,55.00
2018-07-22T07:13:04.444Z,57.57
2018-07-22T07:16:06.674Z,56.48
2018-07-22T07:19:08.931Z,57.05
2018-07-22T07:22:11.202Z,60.31
2018-07-22T07:25:13.578Z,59.95
2018-07-22T07:28:15.835Z,57.27
2018-07-22T07:31:18.629Z,57.25
2018-07-22T07:34:20.888Z,57.52
2018-07-22T07:37:23.182Z,60.51
2018-07-22T07:40:25.475Z,59.56
2018-07-22T07:43:27.733Z,59.13
2018-07-22T07:46:29.963Z,59.60
2018-07-22T07:49:32.372Z,56.81
2018-07-22T07:52:34.669Z,54.67
2018-07-22T07:55:36.946Z,50.62
2018-07-22T07:58:39.337Z,50.82
2018-07-22T08:01:42.666Z,50.71
2018-07-22T08:04:44.915Z,51.79
2018-07-22T08:07:47.217Z,54.84
2018-07-22T08:10:49.537Z,52.44
2018-07-22T08:13:51.791Z,52.14
2018-07-22T08:16:54.028Z,51.94
2018-07-22T08:19:56.322Z,49.88
2018-07-22T08:22:58.561Z,50.98
2018-07-22T08:26:00.896Z,53.55
2018-07-22T08:29:25.735Z,57.25
2018-07-22T08:32:28.010Z,59.72
2018-07-22T08:35:30.261Z,61.14
2018-07-22T08:38:32.447Z,61.96
2018-07-22T08:41:34.751Z,60.38
2018-07-22T08:44:36.957Z,62.12
2018-07-22T08:47:39.167Z,58.90
2018-07-22T08:50:41.361Z,59.97
2018-07-22T08:53:44.834Z,59.86
2018-07-22T08:56:47.185Z,55.59
2018-07-22T08:59:49.454Z,55.53
2018-07-22T09:02:51.763Z,51.70
2018-07-22T09:05:54.033Z,49.71
2018-07-22T09:08:56.334Z,51.99
2018-07-22T09:11:58.577Z,50.32
2018-07-22T09:15:00.781Z,48.03
2018-07-22T09:18:04.059Z,47.61
2018-07-22T09:21:08.513Z,50.39
2018-07-22T09:24:10.731Z,53.87
2018-07-22T09:27:13.051Z,52.84
2018-07-22T09:30:15.237Z,54.28
2018-07-22T09:33:17.470Z,54.57
2018-07-22T09:36:19.847Z,51.54
2018-07-22T09:39:22.058Z,52.19
2018-07-22T09:42:25.074Z,51.95
2018-07-22T09:45:27.269Z,49.80
2018-07-22T09:48:33.853Z,48.03
2018-07-22T09:51:37.216Z,46.97
2018-07-22T09:54:40.514Z,47.55
2018-07-22T09:57:42.818Z,45.53
2018-07-22T10:00:50.622Z,45.69
2018-07-22T10:03:53.877Z,44.75
2018-07-22T10:06:56.073Z,47.20
2018-07-22T10:09:58.310Z,49.39
2018-07-22T10:13:00.633Z,48.55
2018-07-22T10:16:02.994Z,49.84
2018-07-22T10:19:06.357Z,52.61
2018-07-22T10:22:08.782Z,52.65
2018-07-22T10:25:11.086Z,52.61
2018-07-22T10:28:14.401Z,50.26
2018-07-22T10:31:16.654Z,48.43
2018-07-22T10:34:24.248Z,44.06
2018-07-22T10:37:26.801Z,46.20
2018-07-22T10:40:32.131Z,46.36
2018-07-22T10:43:35.465Z,45.60
2018-07-22T10:46:37.842Z,47.25
2018-07-22T10:49:40.114Z,50.08
2018-07-22T10:52:42.466Z,52.51
2018-07-22T10:55:46.778Z,52.32
2018-07-22T10:58:49.082Z,50.10
2018-07-22T11:01:51.451Z,49.97
2018-07-22T11:04:54.718Z,49.71
2018-07-22T11:07:57.023Z,49.70
2018-07-22T11:10:59.234Z,50.98
2018-07-22T11:14:03.686Z,50.56
2018-07-22T11:17:06.062Z,48.96
2018-07-22T11:20:08.364Z,48.46
2018-07-22T11:23:10.578Z,47.35
2018-07-22T11:26:13.851Z,48.81
2018-07-22T11:29:16.258Z,46.96
2018-07-22T11:32:19.611Z,49.33
2018-07-22T11:35:22.961Z,48.93
2018-07-22T11:38:26.303Z,50.33
2018-07-22T11:41:29.615Z,49.91
2018-07-22T11:44:32.846Z,51.41
2018-07-22T11:47:35.287Z,50.74
2018-07-22T11:50:43.279Z,51.40
2018-07-22T11:53:45.452Z,49.72
2018-07-22T11:56:52.746Z,47.48
2018-07-22T11:59:56.076Z,45.89
2018-07-22T12:02:59.286Z,48.04
2018-07-22T12:06:02.518Z,47.71
2018-07-22T12:09:07.105Z,46.58
2018-07-22T12:12:15.026Z,45.23
2018-07-22T12:15:17.276Z,45.74
2018-07-22T12:18:20.631Z,43.67
2018-07-22T12:21:24.946Z,43.87
2018-07-22T12:24:27.183Z,44.31
2018-07-22T12:27:29.441Z,43.89
2018-07-22T12:30:31.994Z,43.62
2018-07-22T12:33:35.324Z,44.09
2018-07-22T12:36:37.852Z,45.35
2018-07-22T12:39:40.241Z,43.86
2018-07-22T12:42:42.474Z,43.77
2018-07-22T12:45:44.726Z,42.38
2018-07-22T12:48:47.114Z,43.70
2018-07-22T12:51:50.309Z,42.48
2018-07-22T12:54:52.584Z,41.99
2018-07-22T12:58:00.616Z,43.60
2018-07-22T13:01:03.840Z,43.31
2018-07-22T13:04:08.199Z,43.68
2018-07-22T13:07:11.551Z,42.35
2018-07-22T13:10:13.744Z,42.14
2018-07-22T13:13:15.982Z,40.80
2018-07-22T13:16:18.242Z,39.70
2018-07-22T13:19:20.502Z,42.38
2018-07-22T13:22:22.817Z,39.26
2018-07-22T13:25:28.701Z,40.31
2018-07-22T13:28:31.125Z,40.87
2018-07-22T13:31:34.346Z,41.85
2018-07-22T13:34:37.653Z,43.25
2018-07-22T13:37:40.911Z,48.94
2018-07-22T13:40:43.131Z,48.85
2018-07-22T13:43:45.390Z,49.13
2018-07-22T13:46:47.607Z,49.82
2018-07-22T13:49:50.007Z,47.75
2018-07-22T13:52:52.304Z,47.30
2018-07-22T13:55:54.575Z,46.75
2018-07-22T13:58:56.805Z,43.44
2018-07-22T14:01:59.028Z,42.58
2018-07-22T14:05:01.402Z,42.80
2018-07-22T14:08:13.361Z,46.42
2018-07-22T14:11:15.615Z,54.65
2018-07-22T14:14:19.830Z,57.67
2018-07-22T14:17:27.067Z,56.33
2018-07-22T14:20:33.009Z,57.13
2018-07-22T14:23:35.228Z,57.20
2018-07-22T14:26:37.593Z,57.03
2018-07-22T14:29:39.891Z,56.23
2018-07-22T14:32:42.100Z,56.61
2018-07-22T14:35:44.403Z,55.30
2018-07-22T14:38:50.650Z,53.28
2018-07-22T14:41:52.933Z,51.45
2018-07-22T14:44:55.196Z,51.70
2018-07-22T14:47:57.513Z,52.90
2018-07-22T14:51:00.762Z,52.71
2018-07-22T14:54:03.062Z,51.91
2018-07-22T14:57:07.366Z,51.28
2018-07-22T15:00:10.017Z,52.13
2018-07-22T15:03:12.346Z,51.74
2018-07-22T15:06:14.572Z,51.24
2018-07-22T15:09:16.877Z,49.64
2018-07-22T15:12:21.205Z,48.38
2018-07-22T15:15:23.446Z,47.86
2018-07-22T15:18:25.712Z,47.73
2018-07-22T15:21:27.941Z,47.99
2018-07-22T15:24:30.173Z,48.72
2018-07-22T15:27:32.413Z,49.22
2018-07-22T15:30:35.781Z,47.80
2018-07-22T15:33:38.053Z,46.57
2018-07-22T15:36:41.301Z,46.97
2018-07-22T15:39:43.622Z,47.70
2018-07-22T15:42:45.946Z,47.21
2018-07-22T15:45:48.210Z,42.74
2018-07-22T15:48:50.446Z,40.10
2018-07-22T15:51:53.663Z,36.73
2018-07-22T15:54:55.943Z,40.62
2018-07-22T15:57:58.230Z,40.63
2018-07-22T16:01:00.489Z,38.60
2018-07-22T16:04:02.757Z,39.48
2018-07-22T16:07:05.310Z,38.81
2018-07-22T16:10:07.820Z,39.89
2018-07-22T16:13:10.028Z,38.84
2018-07-22T16:16:12.275Z,37.96
2018-07-22T16:19:15.581Z,40.28
2018-07-22T16:22:18.813Z,40.39
2018-07-22T16:25:21.141Z,39.40
2018-07-22T16:28:23.396Z,39.77
2018-07-22T16:31:25.753Z,41.94
2018-07-22T16:34:29.093Z,41.72
2018-07-22T16:37:31.519Z,40.94
2018-07-22T16:40:33.764Z,40.18
2018-07-22T16:43:36.223Z,39.38
2018-07-22T16:46:38.512Z,40.14
2018-07-22T16:49:40.840Z,40.15
2018-07-22T16:52:44.161Z,42.16
2018-07-22T16:55:49.741Z,43.28
2018-07-22T16:58:53.005Z,42.93
2018-07-22T17:01:55.256Z,42.94
2018-07-22T17:05:01.062Z,42.17
2018-07-22T17:08:03.425Z,39.10
2018-07-22T17:11:07.780Z,35.35
2018-07-22T17:14:10.084Z,35.86
2018-07-22T17:17:12.433Z,36.73
2018-07-22T17:20:15.810Z,38.55
2018-07-22T17:23:18.168Z,38.15
2018-07-22T17:26:22.510Z,37.43
2018-07-22T17:29:26.355Z,38.17
2018-07-22T17:32:32.410Z,39.92
2018-07-22T17:35:35.867Z,40.22
2018-07-22T17:38:38.200Z,40.84
2018-07-22T17:41:41.439Z,43.62
2018-07-22T17:44:43.870Z,43.94
2018-07-22T17:47:46.190Z,42.48
2018-07-22T17:50:48.431Z,42.92
2018-07-22T17:53:51.759Z,42.93
2018-07-22T17:56:55.031Z,42.22
2018-07-22T18:00:00.770Z,41.57
2018-07-22T18:03:25.556Z,43.42
2018-07-22T18:06:27.789Z,45.33
2018-07-22T18:09:31.057Z,45.95
2018-07-22T18:12:33.325Z,46.22
2018-07-22T18:15:35.557Z,46.05
2018-07-22T18:18:37.865Z,46.33
2018-07-22T18:21:41.137Z,46.81
2018-07-22T18:24:43.469Z,46.31
2018-07-22T18:27:46.764Z,46.84
2018-07-22T18:30:49.092Z,47.74
2018-07-22T18:33:52.371Z,48.10
2018-07-22T18:36:54.624Z,48.10
2018-07-22T18:39:56.943Z,49.19
2018-07-22T18:42:59.180Z,50.06
2018-07-22T18:46:03.630Z,51.82
2018-07-22T18:49:05.929Z,51.71
2018-07-22T18:52:09.132Z,52.47
2018-07-22T18:55:11.513Z,53.69
2018-07-22T18:58:13.857Z,54.58
2018-07-22T19:01:17.385Z,56.21
2018-07-22T19:04:19.686Z,58.17
2018-07-22T19:07:22.007Z,58.55
2018-07-22T19:10:24.258Z,60.74
2018-07-22T19:13:26.446Z,62.32
2018-07-22T19:16:29.643Z,63.62
2018-07-22T19:19:31.976Z,65.04
2018-07-22T19:22:34.224Z,65.72
2018-07-22T19:25:37.451Z,67.71
2018-07-22T19:28:39.745Z,67.87
2018-07-22T19:31:43.040Z,68.93
2018-07-22T19:34:48.748Z,69.77
2018-07-22T19:37:52.045Z,70.07
2018-07-22T19:40:55.453Z,70.58
2018-07-22T19:43:57.685Z,71.95
2018-07-22T19:46:59.992Z,71.98
2018-07-22T19:50:04.436Z,72.38
2018-07-22T19:53:06.682Z,73.42
2018-07-22T19:56:08.952Z,74.89
2018-07-22T19:59:12.346Z,74.85
2018-07-22T20:02:14.631Z,74.86
2018-07-22T20:05:20.705Z,75.17
2018-07-22T20:08:22.881Z,75.35
2018-07-22T20:11:25.142Z,75.62
2018-07-22T20:14:27.348Z,76.16
2018-07-22T20:17:29.722Z,75.76
2018-07-22T20:20:32.254Z,76.92
2018-07-22T20:23:36.661Z,78.16
2018-07-22T20:26:40.199Z,78.12
2018-07-22T20:29:42.812Z,79.58
2018-07-22T20:32:45.189Z,79.11
2018-07-22T20:35:47.642Z,79.24
2018-07-22T20:38:50.248Z,80.04
2018-07-22T20:41:52.582Z,80.51
2018-07-22T20:44:55.203Z,80.95
2018-07-22T20:47:58.706Z,82.63
2018-07-22T20:51:01.280Z,82.81
2018-07-22T20:54:03.753Z,82.88
2018-07-22T20:57:06.320Z,83.19
2018-07-22T21:00:08.820Z,82.44
2018-07-22T21:03:11.254Z,83.03
2018-07-22T21:06:14.728Z,82.87
2018-07-22T21:09:17.349Z,83.48
2018-07-22T21:12:40.519Z,82.87
2018-07-22T21:15:42.950Z,83.09
2018-07-22T21:18:45.390Z,83.87
2018-07-22T21:21:47.866Z,84.34
2018-07-22T21:24:50.160Z,84.82
2018-07-22T21:27:53.514Z,86.48
2018-07-22T21:30:55.962Z,86.71
2018-07-22T21:34:00.554Z,86.19
2018-07-22T21:37:02.927Z,86.11
2018-07-22T21:40:09.147Z,86.11
2018-07-22T21:43:11.666Z,86.54
2018-07-22T21:46:15.054Z,87.00
2018-07-22T21:49:17.617Z,86.49
2018-07-22T21:52:24.172Z,86.79
2018-07-22T21:55:28.592Z,86.74
2018-07-22T21:58:32.139Z,87.06
2018-07-22T22:01:35.617Z,86.95
2018-07-22T22:04:41.074Z,87.44
2018-07-22T22:07:43.439Z,87.56
2018-07-22T22:10:45.769Z,87.72
2018-07-22T22:13:48.177Z,88.32
2018-07-22T22:16:50.611Z,88.54
2018-07-22T22:19:54.040Z,88.25
2018-07-22T22:22:56.859Z,88.21
2018-07-22T22:26:00.515Z,88.04
2018-07-22T22:29:03.159Z,88.41
2018-07-22T22:32:06.649Z,89.11
2018-07-22T22:35:09.295Z,88.29
2018-07-22T22:38:13.828Z,88.27
2018-07-22T22:41:18.346Z,89.34
2018-07-22T22:44:20.811Z,89.42
2018-07-22T22:47:23.256Z,90.49
2018-07-22T22:50:25.727Z,90.94
2018-07-22T22:53:28.228Z,90.75
2018-07-22T22:56:34.873Z,91.56
2018-07-22T22:59:37.355Z,92.14
2018-07-22T23:02:42.969Z,91.86
2018-07-22T23:05:45.862Z,91.74
2018-07-22T23:08:48.280Z,92.08
2018-07-22T23:11:51.770Z,92.09
2018-07-22T23:14:55.300Z,91.76
2018-07-22T23:17:58.796Z,92.24
2018-07-22T23:21:01.378Z,92.34
2018-07-22T23:24:05.056Z,91.85
2018-07-22T23:27:08.638Z,91.77
2018-07-22T23:30:11.331Z,91.24
2018-07-22T23:33:14.981Z,91.22
2018-07-22T23:36:18.576Z,91.62
2018-07-22T23:39:24.320Z,91.16
2018-07-22T23:42:28.775Z,91.78
2018-07-22T23:45:31.208Z,91.56
2018-07-22T23:48:33.767Z,91.61
2018-07-22T23:51:37.368Z,91.34
2018-07-22T23:54:40.055Z,91.81
2018-07-22T23:57:42.538Z,91.65
